sensor_id;sensor_type;location;lat;lon;timestamp;temperature;humidity
25332;DHT22;13284;52.748;13.452;2022-10-15T00:00:39;13.20;99.90
25332;DHT22;13284;52.748;13.452;2022-10-15T00:03:04;13.10;99.90
25332;DHT22;13284;52.748;13.452;2022-10-15T00:05:31;13.10;99.90
25332;DHT22;13284;52.748;13.452;2022-10-15T00:07:56;13.20;99.90
25332;DHT22;13284;52.748;13.452;2022-10-15T00:10:22;13.10;99.90
25332;DHT22;13284;52.748;13.452;2022-10-15T00:12:48;13.00;99.90
25332;DHT22;13284;52.748;13.452;2022-10-15T00:15:13;13.10;99.90
25332;DHT22;13284;52.748;13.452;2022-10-15T00:17:39;13.20;99.90
25332;DHT22;13284;52.748;13.452;2022-10-15T00:20:07;13.10;99.90
25332;DHT22;13284;52.748;13.452;2022-10-15T00:22:33;13.10;99.90
25332;DHT22;13284;52.748;13.452;2022-10-15T00:24:59;13.10;99.90
25332;DHT22;13284;52.748;13.452;2022-10-15T00:27:25;13.10;99.90
25332;DHT22;13284;52.748;13.452;2022-10-15T00:29:50;13.10;99.90
25332;DHT22;13284;52.748;13.452;2022-10-15T00:32:16;13.10;99.90
25332;DHT22;13284;52.748;13.452;2022-10-15T00:34:42;13.10;99.90
25332;DHT22;13284;52.748;13.452;2022-10-15T00:37:08;13.10;99.90
25332;DHT22;13284;52.748;13.452;2022-10-15T00:39:33;13.10;99.90
25332;DHT22;13284;52.748;13.452;2022-10-15T00:41:59;13.10;99.90
25332;DHT22;13284;52.748;13.452;2022-10-15T00:47:03;13.10;99.90
25332;DHT22;13284;52.748;13.452;2022-10-15T00:49:33;13.10;99.90
25332;DHT22;13284;52.748;13.452;2022-10-15T00:52:04;13.10;99.90
25332;DHT22;13284;52.748;13.452;2022-10-15T00:54:33;13.10;99.90
25332;DHT22;13284;52.748;13.452;2022-10-15T00:57:00;13.00;99.90
25332;DHT22;13284;52.748;13.452;2022-10-15T00:59:28;13.10;99.90
25332;DHT22;13284;52.748;13.452;2022-10-15T01:01:55;13.10;99.90
25332;DHT22;13284;52.748;13.452;2022-10-15T01:04:23;13.10;99.90
25332;DHT22;13284;52.748;13.452;2022-10-15T01:06:49;13.10;99.90
25332;DHT22;13284;52.748;13.452;2022-10-15T01:09:14;13.20;99.90
25332;DHT22;13284;52.748;13.452;2022-10-15T01:11:47;13.20;99.90
25332;DHT22;13284;52.748;13.452;2022-10-15T01:14:43;13.20;99.90
25332;DHT22;13284;52.748;13.452;2022-10-15T01:31:39;13.20;99.90
25332;DHT22;13284;52.748;13.452;2022-10-15T01:34:21;13.20;99.90
25332;DHT22;13284;52.748;13.452;2022-10-15T01:37:08;13.20;99.90
25332;DHT22;13284;52.748;13.452;2022-10-15T01:39:43;13.20;99.90
25332;DHT22;13284;52.748;13.452;2022-10-15T01:42:27;13.20;99.90
25332;DHT22;13284;52.748;13.452;2022-10-15T01:44:58;13.20;99.90
25332;DHT22;13284;52.748;13.452;2022-10-15T01:47:47;13.20;99.90
25332;DHT22;13284;52.748;13.452;2022-10-15T01:50:16;13.20;99.90
25332;DHT22;13284;52.748;13.452;2022-10-15T01:52:43;13.20;99.90
25332;DHT22;13284;52.748;13.452;2022-10-15T01:55:12;13.20;99.90
25332;DHT22;13284;52.748;13.452;2022-10-15T01:57:40;13.20;99.90
25332;DHT22;13284;52.748;13.452;2022-10-15T02:00:06;13.20;99.90
25332;DHT22;13284;52.748;13.452;2022-10-15T02:02:32;13.20;99.90
25332;DHT22;13284;52.748;13.452;2022-10-15T02:04:58;13.20;99.90
25332;DHT22;13284;52.748;13.452;2022-10-15T02:07:42;13.20;99.90
25332;DHT22;13284;52.748;13.452;2022-10-15T02:10:21;13.20;99.90
25332;DHT22;13284;52.748;13.452;2022-10-15T02:13:01;13.20;99.90
25332;DHT22;13284;52.748;13.452;2022-10-15T02:20:32;13.20;99.90
25332;DHT22;13284;52.748;13.452;2022-10-15T02:23:06;13.20;99.90
25332;DHT22;13284;52.748;13.452;2022-10-15T02:25:32;13.20;99.90
25332;DHT22;13284;52.748;13.452;2022-10-15T02:28:02;13.20;99.90
25332;DHT22;13284;52.748;13.452;2022-10-15T02:30:30;13.30;99.90
25332;DHT22;13284;52.748;13.452;2022-10-15T02:32:57;13.20;99.90
25332;DHT22;13284;52.748;13.452;2022-10-15T02:35:25;13.20;99.90
25332;DHT22;13284;52.748;13.452;2022-10-15T02:37:53;13.20;99.90
25332;DHT22;13284;52.748;13.452;2022-10-15T02:40:26;13.30;99.90
25332;DHT22;13284;52.748;13.452;2022-10-15T02:42:53;13.30;99.90
25332;DHT22;13284;52.748;13.452;2022-10-15T02:45:19;13.30;99.90
25332;DHT22;13284;52.748;13.452;2022-10-15T02:47:45;13.30;99.90
25332;DHT22;13284;52.748;13.452;2022-10-15T02:50:11;13.30;99.90
25332;DHT22;13284;52.748;13.452;2022-10-15T02:52:56;13.30;99.90
25332;DHT22;13284;52.748;13.452;2022-10-15T02:55:25;13.30;99.90
25332;DHT22;13284;52.748;13.452;2022-10-15T02:57:51;13.30;99.90
25332;DHT22;13284;52.748;13.452;2022-10-15T03:00:16;13.30;99.90
25332;DHT22;13284;52.748;13.452;2022-10-15T03:02:43;13.30;99.90
25332;DHT22;13284;52.748;13.452;2022-10-15T03:05:09;13.30;99.90
25332;DHT22;13284;52.748;13.452;2022-10-15T03:07:35;13.30;99.90
25332;DHT22;13284;52.748;13.452;2022-10-15T03:10:00;13.30;99.90
25332;DHT22;13284;52.748;13.452;2022-10-15T03:12:26;13.20;99.90
25332;DHT22;13284;52.748;13.452;2022-10-15T03:14:52;13.20;99.90
25332;DHT22;13284;52.748;13.452;2022-10-15T03:17:17;13.20;99.90
25332;DHT22;13284;52.748;13.452;2022-10-15T03:19:43;13.20;99.90
25332;DHT22;13284;52.748;13.452;2022-10-15T03:22:08;13.20;99.90
25332;DHT22;13284;52.748;13.452;2022-10-15T03:24:34;13.20;99.90
25332;DHT22;13284;52.748;13.452;2022-10-15T03:26:59;13.20;99.90
25332;DHT22;13284;52.748;13.452;2022-10-15T03:29:25;13.20;99.90
25332;DHT22;13284;52.748;13.452;2022-10-15T03:31:51;13.20;99.90
25332;DHT22;13284;52.748;13.452;2022-10-15T03:34:16;13.20;99.90
25332;DHT22;13284;52.748;13.452;2022-10-15T03:36:42;13.20;99.90
25332;DHT22;13284;52.748;13.452;2022-10-15T03:39:07;13.20;99.90
25332;DHT22;13284;52.748;13.452;2022-10-15T03:41:33;13.20;99.90
25332;DHT22;13284;52.748;13.452;2022-10-15T03:44:06;13.20;99.90
25332;DHT22;13284;52.748;13.452;2022-10-15T03:46:32;13.20;99.90
25332;DHT22;13284;52.748;13.452;2022-10-15T03:48:58;13.20;99.90
25332;DHT22;13284;52.748;13.452;2022-10-15T03:51:23;13.30;99.90
25332;DHT22;13284;52.748;13.452;2022-10-15T03:53:49;13.20;99.90
25332;DHT22;13284;52.748;13.452;2022-10-15T03:56:15;13.20;99.90
25332;DHT22;13284;52.748;13.452;2022-10-15T03:58:40;13.20;99.90
25332;DHT22;13284;52.748;13.452;2022-10-15T04:01:14;13.20;99.90
25332;DHT22;13284;52.748;13.452;2022-10-15T04:03:40;13.30;99.90
25332;DHT22;13284;52.748;13.452;2022-10-15T04:06:06;13.30;99.90
25332;DHT22;13284;52.748;13.452;2022-10-15T04:08:32;13.20;99.90
25332;DHT22;13284;52.748;13.452;2022-10-15T04:10:58;13.30;99.90
25332;DHT22;13284;52.748;13.452;2022-10-15T04:13:25;13.30;99.90
25332;DHT22;13284;52.748;13.452;2022-10-15T04:15:51;13.30;99.90
25332;DHT22;13284;52.748;13.452;2022-10-15T04:18:17;13.30;99.90
25332;DHT22;13284;52.748;13.452;2022-10-15T04:20:44;13.30;99.90
25332;DHT22;13284;52.748;13.452;2022-10-15T04:23:10;13.30;99.90
25332;DHT22;13284;52.748;13.452;2022-10-15T04:25:36;13.40;99.90
25332;DHT22;13284;52.748;13.452;2022-10-15T04:28:01;13.40;99.90
25332;DHT22;13284;52.748;13.452;2022-10-15T04:30:27;13.30;99.90
25332;DHT22;13284;52.748;13.452;2022-10-15T04:32:53;13.30;99.90
25332;DHT22;13284;52.748;13.452;2022-10-15T04:35:19;13.30;99.90
25332;DHT22;13284;52.748;13.452;2022-10-15T04:37:44;13.30;99.90
25332;DHT22;13284;52.748;13.452;2022-10-15T04:40:10;13.40;99.90
25332;DHT22;13284;52.748;13.452;2022-10-15T04:42:37;13.30;99.90
25332;DHT22;13284;52.748;13.452;2022-10-15T04:45:03;13.30;99.90
25332;DHT22;13284;52.748;13.452;2022-10-15T04:47:28;13.30;99.90
25332;DHT22;13284;52.748;13.452;2022-10-15T04:49:54;13.30;99.90
25332;DHT22;13284;52.748;13.452;2022-10-15T04:52:19;13.30;99.90
25332;DHT22;13284;52.748;13.452;2022-10-15T04:54:45;13.40;99.90
25332;DHT22;13284;52.748;13.452;2022-10-15T04:57:10;13.40;99.90
25332;DHT22;13284;52.748;13.452;2022-10-15T04:59:36;13.30;99.90
25332;DHT22;13284;52.748;13.452;2022-10-15T05:02:01;13.40;99.90
25332;DHT22;13284;52.748;13.452;2022-10-15T05:04:27;13.40;99.90
25332;DHT22;13284;52.748;13.452;2022-10-15T05:06:52;13.40;99.90
25332;DHT22;13284;52.748;13.452;2022-10-15T05:09:18;13.40;99.90
25332;DHT22;13284;52.748;13.452;2022-10-15T05:11:43;13.40;99.90
25332;DHT22;13284;52.748;13.452;2022-10-15T05:14:09;13.40;99.90
25332;DHT22;13284;52.748;13.452;2022-10-15T05:16:34;13.40;99.90
25332;DHT22;13284;52.748;13.452;2022-10-15T05:19:03;13.40;99.90
25332;DHT22;13284;52.748;13.452;2022-10-15T05:21:29;13.40;99.90
25332;DHT22;13284;52.748;13.452;2022-10-15T05:23:56;13.50;99.90
25332;DHT22;13284;52.748;13.452;2022-10-15T05:26:24;13.50;99.90
25332;DHT22;13284;52.748;13.452;2022-10-15T05:28:51;13.50;99.90
25332;DHT22;13284;52.748;13.452;2022-10-15T05:31:19;13.50;99.90
25332;DHT22;13284;52.748;13.452;2022-10-15T05:33:46;13.40;99.90
25332;DHT22;13284;52.748;13.452;2022-10-15T05:38:49;13.40;99.90
25332;DHT22;13284;52.748;13.452;2022-10-15T05:41:15;13.40;99.90
25332;DHT22;13284;52.748;13.452;2022-10-15T05:43:41;13.40;99.90
25332;DHT22;13284;52.748;13.452;2022-10-15T05:46:07;13.40;99.90
25332;DHT22;13284;52.748;13.452;2022-10-15T05:48:33;13.30;99.90
25332;DHT22;13284;52.748;13.452;2022-10-15T05:51:04;13.30;99.90
25332;DHT22;13284;52.748;13.452;2022-10-15T05:53:30;13.30;99.90
25332;DHT22;13284;52.748;13.452;2022-10-15T05:55:56;13.30;99.90
25332;DHT22;13284;52.748;13.452;2022-10-15T05:58:26;13.30;99.90
25332;DHT22;13284;52.748;13.452;2022-10-15T06:00:56;13.20;99.90
25332;DHT22;13284;52.748;13.452;2022-10-15T06:03:22;13.30;99.90
25332;DHT22;13284;52.748;13.452;2022-10-15T06:05:48;13.30;99.90
25332;DHT22;13284;52.748;13.452;2022-10-15T06:08:14;13.30;99.90
25332;DHT22;13284;52.748;13.452;2022-10-15T06:10:40;13.40;99.90
25332;DHT22;13284;52.748;13.452;2022-10-15T06:13:06;13.40;99.90
25332;DHT22;13284;52.748;13.452;2022-10-15T06:15:33;13.30;99.90
25332;DHT22;13284;52.748;13.452;2022-10-15T06:17:59;13.30;99.90
25332;DHT22;13284;52.748;13.452;2022-10-15T06:20:25;13.30;99.90
25332;DHT22;13284;52.748;13.452;2022-10-15T06:22:50;13.20;99.90
25332;DHT22;13284;52.748;13.452;2022-10-15T06:25:16;13.20;99.90
25332;DHT22;13284;52.748;13.452;2022-10-15T06:27:44;13.20;99.90
25332;DHT22;13284;52.748;13.452;2022-10-15T06:30:10;13.10;99.90
25332;DHT22;13284;52.748;13.452;2022-10-15T06:32:36;13.10;99.90
25332;DHT22;13284;52.748;13.452;2022-10-15T06:35:01;13.20;99.90
25332;DHT22;13284;52.748;13.452;2022-10-15T06:37:28;13.20;99.90
25332;DHT22;13284;52.748;13.452;2022-10-15T06:39:54;13.20;99.90
25332;DHT22;13284;52.748;13.452;2022-10-15T06:42:19;13.20;99.90
25332;DHT22;13284;52.748;13.452;2022-10-15T06:44:45;13.30;99.90
25332;DHT22;13284;52.748;13.452;2022-10-15T06:47:10;13.40;99.90
25332;DHT22;13284;52.748;13.452;2022-10-15T06:49:36;13.50;99.90
25332;DHT22;13284;52.748;13.452;2022-10-15T06:52:01;13.60;99.90
25332;DHT22;13284;52.748;13.452;2022-10-15T06:54:27;13.60;99.90
25332;DHT22;13284;52.748;13.452;2022-10-15T06:56:52;13.70;99.90
25332;DHT22;13284;52.748;13.452;2022-10-15T06:59:18;13.70;99.90
25332;DHT22;13284;52.748;13.452;2022-10-15T07:01:43;13.70;99.90
25332;DHT22;13284;52.748;13.452;2022-10-15T07:04:09;13.80;99.90
25332;DHT22;13284;52.748;13.452;2022-10-15T07:06:34;13.70;99.90
25332;DHT22;13284;52.748;13.452;2022-10-15T07:09:01;13.70;99.90
25332;DHT22;13284;52.748;13.452;2022-10-15T07:11:27;13.80;99.90
25332;DHT22;13284;52.748;13.452;2022-10-15T07:13:53;13.80;99.90
25332;DHT22;13284;52.748;13.452;2022-10-15T07:16:18;13.80;99.90
25332;DHT22;13284;52.748;13.452;2022-10-15T07:18:46;13.80;99.90
25332;DHT22;13284;52.748;13.452;2022-10-15T07:21:12;14.00;99.90
25332;DHT22;13284;52.748;13.452;2022-10-15T07:23:37;14.10;99.90
25332;DHT22;13284;52.748;13.452;2022-10-15T07:26:03;14.10;99.90
25332;DHT22;13284;52.748;13.452;2022-10-15T07:28:29;14.20;99.90
25332;DHT22;13284;52.748;13.452;2022-10-15T07:30:59;14.20;99.90
25332;DHT22;13284;52.748;13.452;2022-10-15T07:33:25;14.20;99.90
25332;DHT22;13284;52.748;13.452;2022-10-15T07:35:51;14.30;99.90
25332;DHT22;13284;52.748;13.452;2022-10-15T07:38:16;14.40;99.90
25332;DHT22;13284;52.748;13.452;2022-10-15T07:40:42;14.40;99.90
25332;DHT22;13284;52.748;13.452;2022-10-15T07:43:08;14.40;99.90
25332;DHT22;13284;52.748;13.452;2022-10-15T07:45:33;14.50;99.90
25332;DHT22;13284;52.748;13.452;2022-10-15T07:48:00;14.50;99.90
25332;DHT22;13284;52.748;13.452;2022-10-15T07:50:26;14.60;99.90
25332;DHT22;13284;52.748;13.452;2022-10-15T07:53:01;14.60;99.90
25332;DHT22;13284;52.748;13.452;2022-10-15T07:55:36;14.70;99.90
25332;DHT22;13284;52.748;13.452;2022-10-15T07:58:02;14.80;99.90
25332;DHT22;13284;52.748;13.452;2022-10-15T08:00:31;14.80;99.90
25332;DHT22;13284;52.748;13.452;2022-10-15T08:02:56;14.90;99.90
25332;DHT22;13284;52.748;13.452;2022-10-15T08:05:22;14.90;99.90
25332;DHT22;13284;52.748;13.452;2022-10-15T08:07:48;14.90;99.90
25332;DHT22;13284;52.748;13.452;2022-10-15T08:10:14;15.00;99.90
25332;DHT22;13284;52.748;13.452;2022-10-15T08:12:39;15.00;99.90
25332;DHT22;13284;52.748;13.452;2022-10-15T08:15:05;15.10;99.90
25332;DHT22;13284;52.748;13.452;2022-10-15T08:17:31;15.10;99.90
25332;DHT22;13284;52.748;13.452;2022-10-15T08:20:04;15.20;99.90
25332;DHT22;13284;52.748;13.452;2022-10-15T08:22:30;15.20;99.90
25332;DHT22;13284;52.748;13.452;2022-10-15T08:24:55;15.20;99.90
25332;DHT22;13284;52.748;13.452;2022-10-15T08:27:21;15.10;99.90
25332;DHT22;13284;52.748;13.452;2022-10-15T08:29:46;15.10;99.90
25332;DHT22;13284;52.748;13.452;2022-10-15T08:32:12;15.20;99.90
25332;DHT22;13284;52.748;13.452;2022-10-15T08:34:38;15.40;99.90
25332;DHT22;13284;52.748;13.452;2022-10-15T08:37:03;15.60;99.90
25332;DHT22;13284;52.748;13.452;2022-10-15T08:39:29;15.80;99.90
25332;DHT22;13284;52.748;13.452;2022-10-15T08:41:59;15.90;99.90
25332;DHT22;13284;52.748;13.452;2022-10-15T08:44:29;16.00;99.90
25332;DHT22;13284;52.748;13.452;2022-10-15T08:47:01;16.20;99.90
25332;DHT22;13284;52.748;13.452;2022-10-15T08:49:51;16.30;99.90
25332;DHT22;13284;52.748;13.452;2022-10-15T08:52:24;16.30;99.90
25332;DHT22;13284;52.748;13.452;2022-10-15T08:54:50;16.50;99.90
25332;DHT22;13284;52.748;13.452;2022-10-15T08:57:42;16.80;99.90
25332;DHT22;13284;52.748;13.452;2022-10-15T09:06:06;18.10;99.90
25332;DHT22;13284;52.748;13.452;2022-10-15T09:14:21;18.60;99.90
25332;DHT22;13284;52.748;13.452;2022-10-15T09:16:49;18.40;99.90
25332;DHT22;13284;52.748;13.452;2022-10-15T09:19:18;18.50;99.90
25332;DHT22;13284;52.748;13.452;2022-10-15T09:21:46;18.30;99.90
25332;DHT22;13284;52.748;13.452;2022-10-15T09:24:21;18.10;99.90
25332;DHT22;13284;52.748;13.452;2022-10-15T09:26:50;17.90;99.90
25332;DHT22;13284;52.748;13.452;2022-10-15T09:29:20;18.00;99.90
25332;DHT22;13284;52.748;13.452;2022-10-15T09:32:09;18.30;99.90
25332;DHT22;13284;52.748;13.452;2022-10-15T09:35:00;18.50;99.90
25332;DHT22;13284;52.748;13.452;2022-10-15T09:37:34;18.70;99.90
25332;DHT22;13284;52.748;13.452;2022-10-15T09:42:48;18.30;99.90
25332;DHT22;13284;52.748;13.452;2022-10-15T09:45:15;18.10;99.90
25332;DHT22;13284;52.748;13.452;2022-10-15T09:47:42;18.10;99.90
25332;DHT22;13284;52.748;13.452;2022-10-15T09:50:21;18.10;99.90
25332;DHT22;13284;52.748;13.452;2022-10-15T09:53:12;18.10;99.90
25332;DHT22;13284;52.748;13.452;2022-10-15T09:55:41;18.10;99.90
25332;DHT22;13284;52.748;13.452;2022-10-15T09:58:20;18.10;99.90
25332;DHT22;13284;52.748;13.452;2022-10-15T10:01:04;18.10;99.90
25332;DHT22;13284;52.748;13.452;2022-10-15T10:03:33;18.10;99.90
25332;DHT22;13284;52.748;13.452;2022-10-15T10:06:01;17.90;99.90
25332;DHT22;13284;52.748;13.452;2022-10-15T10:08:30;18.10;99.90
25332;DHT22;13284;52.748;13.452;2022-10-15T10:11:03;18.10;99.90
25332;DHT22;13284;52.748;13.452;2022-10-15T10:13:39;18.20;99.90
25332;DHT22;13284;52.748;13.452;2022-10-15T10:16:11;18.20;99.90
25332;DHT22;13284;52.748;13.452;2022-10-15T10:18:37;18.00;99.90
25332;DHT22;13284;52.748;13.452;2022-10-15T10:21:49;17.80;99.90
25332;DHT22;13284;52.748;13.452;2022-10-15T10:23:51;17.90;99.90
25332;DHT22;13284;52.748;13.452;2022-10-15T10:26:17;17.80;99.90
25332;DHT22;13284;52.748;13.452;2022-10-15T10:28:44;17.90;99.90
25332;DHT22;13284;52.748;13.452;2022-10-15T10:31:11;17.90;99.90
25332;DHT22;13284;52.748;13.452;2022-10-15T10:33:45;17.90;99.90
25332;DHT22;13284;52.748;13.452;2022-10-15T10:36:41;17.90;99.90
25332;DHT22;13284;52.748;13.452;2022-10-15T10:41:57;17.90;99.90
25332;DHT22;13284;52.748;13.452;2022-10-15T10:44:38;18.00;99.90
25332;DHT22;13284;52.748;13.452;2022-10-15T10:47:17;17.90;99.90
25332;DHT22;13284;52.748;13.452;2022-10-15T10:49:52;17.90;99.90
25332;DHT22;13284;52.748;13.452;2022-10-15T10:52:28;17.90;99.90
25332;DHT22;13284;52.748;13.452;2022-10-15T10:55:09;17.80;99.90
25332;DHT22;13284;52.748;13.452;2022-10-15T10:57:53;17.90;99.90
25332;DHT22;13284;52.748;13.452;2022-10-15T11:03:35;18.00;99.90
25332;DHT22;13284;52.748;13.452;2022-10-15T11:11:36;18.00;99.90
25332;DHT22;13284;52.748;13.452;2022-10-15T11:19:34;18.00;99.90
25332;DHT22;13284;52.748;13.452;2022-10-15T11:22:14;18.10;99.90
25332;DHT22;13284;52.748;13.452;2022-10-15T11:33:33;18.10;99.90
25332;DHT22;13284;52.748;13.452;2022-10-15T11:42:23;17.80;99.90
25332;DHT22;13284;52.748;13.452;2022-10-15T11:45:29;17.80;99.90
25332;DHT22;13284;52.748;13.452;2022-10-15T11:48:15;17.90;99.90
25332;DHT22;13284;52.748;13.452;2022-10-15T11:50:56;17.90;99.90
25332;DHT22;13284;52.748;13.452;2022-10-15T11:53:57;18.10;99.90
25332;DHT22;13284;52.748;13.452;2022-10-15T11:56:40;18.20;99.90
25332;DHT22;13284;52.748;13.452;2022-10-15T11:59:29;18.30;99.90
25332;DHT22;13284;52.748;13.452;2022-10-15T12:02:01;18.40;99.90
25332;DHT22;13284;52.748;13.452;2022-10-15T12:04:44;19.00;99.90
25332;DHT22;13284;52.748;13.452;2022-10-15T12:07:21;18.90;99.90
25332;DHT22;13284;52.748;13.452;2022-10-15T12:09:52;18.80;99.90
25332;DHT22;13284;52.748;13.452;2022-10-15T12:12:36;18.50;99.90
25332;DHT22;13284;52.748;13.452;2022-10-15T12:15:26;18.80;99.90
25332;DHT22;13284;52.748;13.452;2022-10-15T12:20:41;20.00;99.90
25332;DHT22;13284;52.748;13.452;2022-10-15T12:23:22;20.30;99.90
25332;DHT22;13284;52.748;13.452;2022-10-15T12:25:48;20.00;99.90
25332;DHT22;13284;52.748;13.452;2022-10-15T12:28:17;19.80;99.90
25332;DHT22;13284;52.748;13.452;2022-10-15T12:30:53;20.10;99.90
25332;DHT22;13284;52.748;13.452;2022-10-15T12:33:34;20.00;99.90
25332;DHT22;13284;52.748;13.452;2022-10-15T12:36:07;19.70;99.90
25332;DHT22;13284;52.748;13.452;2022-10-15T12:39:21;19.60;99.90
25332;DHT22;13284;52.748;13.452;2022-10-15T12:41:48;19.50;99.90
25332;DHT22;13284;52.748;13.452;2022-10-15T12:44:24;19.60;99.90
25332;DHT22;13284;52.748;13.452;2022-10-15T12:46:52;19.40;99.90
25332;DHT22;13284;52.748;13.452;2022-10-15T12:51:55;18.90;99.90
25332;DHT22;13284;52.748;13.452;2022-10-15T12:54:39;18.80;99.90
25332;DHT22;13284;52.748;13.452;2022-10-15T13:02:51;18.50;99.90
25332;DHT22;13284;52.748;13.452;2022-10-15T13:05:31;18.60;99.90
25332;DHT22;13284;52.748;13.452;2022-10-15T13:07:59;18.50;99.90
25332;DHT22;13284;52.748;13.452;2022-10-15T13:10:33;18.40;99.90
25332;DHT22;13284;52.748;13.452;2022-10-15T13:13:03;18.40;99.90
25332;DHT22;13284;52.748;13.452;2022-10-15T13:15:30;18.40;99.90
25332;DHT22;13284;52.748;13.452;2022-10-15T13:18:05;18.40;99.90
25332;DHT22;13284;52.748;13.452;2022-10-15T13:20:36;18.40;99.90
25332;DHT22;13284;52.748;13.452;2022-10-15T13:23:16;18.30;99.90
25332;DHT22;13284;52.748;13.452;2022-10-15T13:25:42;18.40;99.90
25332;DHT22;13284;52.748;13.452;2022-10-15T13:28:33;18.50;99.90
25332;DHT22;13284;52.748;13.452;2022-10-15T13:31:02;18.60;99.90
25332;DHT22;13284;52.748;13.452;2022-10-15T13:33:29;18.60;99.90
25332;DHT22;13284;52.748;13.452;2022-10-15T13:35:58;18.60;99.90
25332;DHT22;13284;52.748;13.452;2022-10-15T13:38:28;18.60;99.90
25332;DHT22;13284;52.748;13.452;2022-10-15T13:40:54;18.70;99.90
25332;DHT22;13284;52.748;13.452;2022-10-15T13:43:25;18.60;99.90
25332;DHT22;13284;52.748;13.452;2022-10-15T13:45:58;18.50;99.90
25332;DHT22;13284;52.748;13.452;2022-10-15T13:48:27;18.50;99.90
25332;DHT22;13284;52.748;13.452;2022-10-15T13:50:55;18.50;99.90
25332;DHT22;13284;52.748;13.452;2022-10-15T13:53:30;18.50;99.90
25332;DHT22;13284;52.748;13.452;2022-10-15T13:56:01;18.50;99.90
25332;DHT22;13284;52.748;13.452;2022-10-15T13:58:30;18.40;99.90
25332;DHT22;13284;52.748;13.452;2022-10-15T14:01:06;18.50;99.90
25332;DHT22;13284;52.748;13.452;2022-10-15T14:03:34;18.60;99.90
25332;DHT22;13284;52.748;13.452;2022-10-15T14:06:30;19.00;99.90
25332;DHT22;13284;52.748;13.452;2022-10-15T14:09:12;19.30;99.90
25332;DHT22;13284;52.748;13.452;2022-10-15T14:11:38;19.20;99.90
25332;DHT22;13284;52.748;13.452;2022-10-15T14:14:28;19.40;99.90
25332;DHT22;13284;52.748;13.452;2022-10-15T14:16:55;19.40;99.90
25332;DHT22;13284;52.748;13.452;2022-10-15T14:19:21;19.60;99.90
25332;DHT22;13284;52.748;13.452;2022-10-15T14:21:51;19.30;99.90
25332;DHT22;13284;52.748;13.452;2022-10-15T14:24:22;19.10;99.90
25332;DHT22;13284;52.748;13.452;2022-10-15T14:26:49;19.00;99.90
25332;DHT22;13284;52.748;13.452;2022-10-15T14:29:25;18.90;99.90
25332;DHT22;13284;52.748;13.452;2022-10-15T14:31:51;18.90;99.90
25332;DHT22;13284;52.748;13.452;2022-10-15T14:34:43;18.80;99.90
25332;DHT22;13284;52.748;13.452;2022-10-15T14:42:34;18.80;99.90
25332;DHT22;13284;52.748;13.452;2022-10-15T14:45:11;18.90;99.90
25332;DHT22;13284;52.748;13.452;2022-10-15T14:47:37;18.90;99.90
25332;DHT22;13284;52.748;13.452;2022-10-15T14:50:04;18.70;99.90
25332;DHT22;13284;52.748;13.452;2022-10-15T14:52:30;18.60;99.90
25332;DHT22;13284;52.748;13.452;2022-10-15T14:57:28;18.60;99.90
25332;DHT22;13284;52.748;13.452;2022-10-15T14:59:55;18.60;99.90
25332;DHT22;13284;52.748;13.452;2022-10-15T15:02:23;18.40;99.90
25332;DHT22;13284;52.748;13.452;2022-10-15T15:05:19;18.30;99.90
25332;DHT22;13284;52.748;13.452;2022-10-15T15:07:45;18.40;99.90
25332;DHT22;13284;52.748;13.452;2022-10-15T15:10:12;18.30;99.90
25332;DHT22;13284;52.748;13.452;2022-10-15T15:12:38;18.40;99.90
25332;DHT22;13284;52.748;13.452;2022-10-15T15:15:13;18.30;99.90
25332;DHT22;13284;52.748;13.452;2022-10-15T15:17:39;18.30;99.90
25332;DHT22;13284;52.748;13.452;2022-10-15T15:20:04;18.30;99.90
25332;DHT22;13284;52.748;13.452;2022-10-15T15:22:32;18.20;99.90
25332;DHT22;13284;52.748;13.452;2022-10-15T15:25:00;18.10;99.90
25332;DHT22;13284;52.748;13.452;2022-10-15T15:27:28;18.00;99.90
25332;DHT22;13284;52.748;13.452;2022-10-15T15:29:56;18.00;99.90
25332;DHT22;13284;52.748;13.452;2022-10-15T15:32:23;17.90;99.90
25332;DHT22;13284;52.748;13.452;2022-10-15T15:34:50;17.70;99.90
25332;DHT22;13284;52.748;13.452;2022-10-15T15:37:25;17.70;99.90
25332;DHT22;13284;52.748;13.452;2022-10-15T15:39:51;17.70;99.90
25332;DHT22;13284;52.748;13.452;2022-10-15T15:42:22;17.60;99.90
25332;DHT22;13284;52.748;13.452;2022-10-15T15:44:48;17.60;99.90
25332;DHT22;13284;52.748;13.452;2022-10-15T15:47:13;17.50;99.90
25332;DHT22;13284;52.748;13.452;2022-10-15T15:49:39;17.50;99.90
25332;DHT22;13284;52.748;13.452;2022-10-15T15:52:09;17.50;99.90
25332;DHT22;13284;52.748;13.452;2022-10-15T15:54:37;17.50;99.90
25332;DHT22;13284;52.748;13.452;2022-10-15T15:57:03;17.50;99.90
25332;DHT22;13284;52.748;13.452;2022-10-15T15:59:28;17.50;99.90
25332;DHT22;13284;52.748;13.452;2022-10-15T16:01:54;17.50;99.90
25332;DHT22;13284;52.748;13.452;2022-10-15T16:04:20;17.40;99.90
25332;DHT22;13284;52.748;13.452;2022-10-15T16:06:45;17.30;99.90
25332;DHT22;13284;52.748;13.452;2022-10-15T16:09:14;17.20;99.90
25332;DHT22;13284;52.748;13.452;2022-10-15T16:11:40;17.10;99.90
25332;DHT22;13284;52.748;13.452;2022-10-15T16:14:05;17.10;99.90
25332;DHT22;13284;52.748;13.452;2022-10-15T16:16:31;17.10;99.90
25332;DHT22;13284;52.748;13.452;2022-10-15T16:18:57;17.00;99.90
25332;DHT22;13284;52.748;13.452;2022-10-15T16:21:24;17.00;99.90
25332;DHT22;13284;52.748;13.452;2022-10-15T16:23:49;17.00;99.90
25332;DHT22;13284;52.748;13.452;2022-10-15T16:26:16;16.80;99.90
25332;DHT22;13284;52.748;13.452;2022-10-15T16:28:41;16.70;99.90
25332;DHT22;13284;52.748;13.452;2022-10-15T16:31:25;16.70;99.90
25332;DHT22;13284;52.748;13.452;2022-10-15T16:33:53;16.50;99.90
25332;DHT22;13284;52.748;13.452;2022-10-15T16:36:19;16.50;99.90
25332;DHT22;13284;52.748;13.452;2022-10-15T16:38:45;16.40;99.90
25332;DHT22;13284;52.748;13.452;2022-10-15T16:41:13;16.30;99.90
25332;DHT22;13284;52.748;13.452;2022-10-15T16:43:39;16.20;99.90
25332;DHT22;13284;52.748;13.452;2022-10-15T16:46:05;16.10;99.90
25332;DHT22;13284;52.748;13.452;2022-10-15T16:48:31;16.10;99.90
25332;DHT22;13284;52.748;13.452;2022-10-15T16:53:26;16.00;99.90
25332;DHT22;13284;52.748;13.452;2022-10-15T16:55:52;15.90;99.90
25332;DHT22;13284;52.748;13.452;2022-10-15T16:58:18;15.80;99.90
25332;DHT22;13284;52.748;13.452;2022-10-15T17:00:43;15.80;99.90
25332;DHT22;13284;52.748;13.452;2022-10-15T17:03:09;15.70;99.90